Time;durP1;ratioP1;P1;durP2;ratioP2;P2;SDS_P1;SDS_P2;PMS_P1;PMS_P2;Temp;Humidity;BMP_temperature;BMP_pressure;BME280_temperature;BME280_humidity;BME280_pressure;Samples;Min_cycle;Max_cycle;Signal;HPM_P1;HPM_P2
2022/01/11 00:00:14;;;;;;;46.77;21.73;;;1.50;99.90;;;;;;5042450;28;20236;-64
2022/01/11 00:02:44;;;;;;;49.50;22.20;;;1.50;99.90;;;;;;5039505;28;20203;-64
2022/01/11 00:05:21;;;;;;;47.07;21.50;;;1.50;99.90;;;;;;5042080;28;20232;-65
2022/01/11 00:07:51;;;;;;;45.13;21.37;;;1.50;99.90;;;;;;5046237;28;20192;-65
2022/01/11 00:10:27;;;;;;;49.10;21.90;;;1.40;99.90;;;;;;5043631;28;20199;-64
2022/01/11 00:12:55;;;;;;;46.90;22.07;;;1.40;99.90;;;;;;5043695;28;20196;-64
2022/01/11 00:15:24;;;;;;;46.57;20.57;;;1.40;99.90;;;;;;5043534;28;20248;-65
2022/01/11 00:17:54;;;;;;;46.53;20.33;;;1.40;99.90;;;;;;5045257;28;20192;-65
2022/01/11 00:20:23;;;;;;;45.43;21.80;;;1.40;99.90;;;;;;5043077;28;20196;-64
2022/01/11 00:25:37;;;;;;;45.37;22.10;;;1.30;99.90;;;;;;4993811;28;20210;-64
2022/01/11 00:28:06;;;;;;;48.50;22.03;;;1.30;99.90;;;;;;5043683;28;20200;-65
2022/01/11 00:30:39;;;;;;;45.47;22.13;;;1.30;99.90;;;;;;5042414;28;20225;-64
2022/01/11 00:33:12;;;;;;;48.83;21.97;;;1.30;99.90;;;;;;5042418;28;20188;-65
2022/01/11 00:35:42;;;;;;;50.60;22.73;;;1.20;99.90;;;;;;5041267;28;20279;-64
2022/01/11 00:38:15;;;;;;;51.57;22.50;;;1.20;99.90;;;;;;5045816;28;20275;-64
2022/01/11 00:40:48;;;;;;;48.10;21.90;;;1.20;99.90;;;;;;5042029;28;20205;-65
2022/01/11 00:43:18;;;;;;;48.80;22.10;;;1.20;99.90;;;;;;5044875;28;20189;-64
2022/01/11 00:45:47;;;;;;;50.97;23.10;;;1.20;99.90;;;;;;5044585;28;20584;-64
2022/01/11 00:48:16;;;;;;;50.90;22.07;;;1.20;99.90;;;;;;5050922;28;20258;-65
2022/01/11 00:50:47;;;;;;;55.97;23.90;;;1.20;99.90;;;;;;5046603;28;20201;-64
2022/01/11 00:53:18;;;;;;;54.77;23.63;;;1.20;99.90;;;;;;5051415;28;20258;-64
2022/01/11 00:55:48;;;;;;;52.30;23.00;;;1.10;99.90;;;;;;5052246;28;20325;-64
2022/01/11 00:58:18;;;;;;;52.43;23.60;;;1.10;99.90;;;;;;5048535;28;20197;-64
2022/01/11 01:00:46;;;;;;;47.97;22.17;;;1.10;99.90;;;;;;5046735;28;20283;-64
2022/01/11 01:03:52;;;;;;;74.13;33.23;;;1.10;99.90;;;;;;5050467;28;20559;-64
2022/01/11 01:06:58;;;;;;;54.43;24.03;;;1.00;99.90;;;;;;5048222;28;20191;-64
2022/01/11 01:09:35;;;;;;;54.77;24.80;;;1.00;99.90;;;;;;5065923;28;20242;-64
2022/01/11 01:12:06;;;;;;;58.33;24.63;;;1.00;99.90;;;;;;5048682;28;20679;-64
2022/01/11 01:14:35;;;;;;;62.60;24.77;;;1.00;99.90;;;;;;5052733;28;20227;-64
2022/01/11 01:17:03;;;;;;;51.50;22.97;;;1.00;99.90;;;;;;5046187;28;20733;-64
2022/01/11 01:19:32;;;;;;;54.00;23.30;;;1.00;99.90;;;;;;5042628;28;20770;-64
2022/01/11 01:22:00;;;;;;;54.73;24.23;;;1.00;99.90;;;;;;5051167;28;20231;-64
2022/01/11 01:24:29;;;;;;;65.93;25.37;;;1.00;99.90;;;;;;5048997;28;20265;-64
2022/01/11 01:26:57;;;;;;;62.73;24.07;;;1.00;99.90;;;;;;5065684;28;20200;-64
2022/01/11 01:29:27;;;;;;;55.77;23.13;;;0.90;99.90;;;;;;5051768;28;20539;-64
2022/01/11 01:31:56;;;;;;;59.03;25.03;;;0.90;99.90;;;;;;5049463;28;20332;-65
2022/01/11 01:34:24;;;;;;;52.40;22.50;;;0.90;99.90;;;;;;5047186;28;20275;-64
2022/01/11 01:36:53;;;;;;;51.63;22.17;;;1.00;99.90;;;;;;5052730;28;20310;-64
2022/01/11 01:39:22;;;;;;;45.93;20.33;;;0.90;99.90;;;;;;5048161;28;20208;-64
2022/01/11 01:41:50;;;;;;;58.43;22.27;;;1.00;99.90;;;;;;5048803;28;20719;-64
2022/01/11 01:44:19;;;;;;;45.83;20.60;;;1.00;99.90;;;;;;5051632;28;20271;-65
2022/01/11 01:46:48;;;;;;;49.50;21.77;;;1.00;99.90;;;;;;5050233;28;20195;-64
2022/01/11 01:49:19;;;;;;;46.33;20.57;;;1.00;99.90;;;;;;5052542;28;20823;-64
2022/01/11 01:51:48;;;;;;;54.27;21.37;;;1.00;99.90;;;;;;5049072;28;20275;-64
2022/01/11 01:54:17;;;;;;;42.77;19.70;;;1.00;99.90;;;;;;5048933;28;20205;-64
2022/01/11 01:56:46;;;;;;;44.70;20.40;;;1.00;99.90;;;;;;5038311;28;20196;-64
2022/01/11 01:59:16;;;;;;;47.23;19.83;;;1.00;99.90;;;;;;5044886;28;20205;-64
2022/01/11 02:01:46;;;;;;;46.83;19.47;;;1.00;99.90;;;;;;5041820;28;20617;-64
2022/01/11 02:04:18;;;;;;;45.03;19.33;;;1.00;99.90;;;;;;5040304;28;20193;-64
2022/01/11 02:06:47;;;;;;;43.77;19.37;;;1.10;99.90;;;;;;5041440;28;20223;-65
2022/01/11 02:09:17;;;;;;;41.93;19.60;;;1.00;99.90;;;;;;5047879;28;20192;-65
2022/01/11 02:11:48;;;;;;;39.60;19.17;;;1.00;99.90;;;;;;5048828;28;20638;-64
2022/01/11 02:14:16;;;;;;;41.10;18.37;;;1.00;99.90;;;;;;5046604;28;20215;-64
2022/01/11 02:16:45;;;;;;;42.47;18.87;;;1.00;99.90;;;;;;5043033;28;20292;-65
2022/01/11 02:19:13;;;;;;;40.53;19.17;;;1.10;99.90;;;;;;5045905;28;20189;-64
2022/01/11 02:21:43;;;;;;;35.43;17.87;;;1.10;99.90;;;;;;5047007;28;20203;-64
2022/01/11 02:24:11;;;;;;;36.53;17.53;;;1.10;99.90;;;;;;5045091;28;20283;-64
2022/01/11 02:26:40;;;;;;;38.23;18.40;;;1.10;99.90;;;;;;5045593;28;20656;-64
2022/01/11 02:29:08;;;;;;;37.40;18.70;;;1.10;99.90;;;;;;5045850;28;20280;-64
2022/01/11 02:31:38;;;;;;;35.83;16.93;;;1.10;99.90;;;;;;5047647;28;20197;-64
2022/01/11 02:34:07;;;;;;;37.50;18.30;;;1.10;99.90;;;;;;5045234;28;20287;-64
2022/01/11 02:36:37;;;;;;;37.03;17.10;;;1.10;99.90;;;;;;5046332;28;20221;-65
2022/01/11 02:39:06;;;;;;;34.93;16.90;;;1.10;99.90;;;;;;5044945;28;20238;-65
2022/01/11 02:41:35;;;;;;;37.03;17.70;;;1.10;99.90;;;;;;5044902;28;20192;-64
2022/01/11 02:44:04;;;;;;;41.70;18.67;;;1.10;99.90;;;;;;5047659;28;20201;-65
2022/01/11 02:46:32;;;;;;;35.67;17.30;;;1.10;99.90;;;;;;5047325;28;20256;-64
2022/01/11 02:49:01;;;;;;;39.80;17.50;;;1.20;99.90;;;;;;5047314;28;20683;-64
2022/01/11 02:51:29;;;;;;;37.83;17.47;;;1.10;99.90;;;;;;5044076;28;20348;-64
2022/01/11 02:53:59;;;;;;;35.83;17.83;;;1.20;99.90;;;;;;5047432;28;20208;-65
2022/01/11 02:56:30;;;;;;;37.67;17.70;;;1.10;99.90;;;;;;5046262;28;20247;-65
2022/01/11 02:58:58;;;;;;;40.70;17.67;;;1.10;99.90;;;;;;5047219;28;20311;-64
2022/01/11 03:01:27;;;;;;;31.60;16.70;;;1.10;99.90;;;;;;5045373;28;20196;-64
2022/01/11 03:03:56;;;;;;;37.60;18.07;;;1.10;99.90;;;;;;5041421;28;20197;-65
2022/01/11 03:06:25;;;;;;;36.60;17.60;;;1.10;99.90;;;;;;5039415;28;20648;-64
2022/01/11 03:08:54;;;;;;;37.07;16.53;;;1.10;99.90;;;;;;5041776;28;20638;-65
2022/01/11 03:11:24;;;;;;;34.17;16.37;;;1.10;99.90;;;;;;5046037;28;20276;-64
2022/01/11 03:13:54;;;;;;;34.73;16.37;;;1.10;99.90;;;;;;5044234;28;20227;-65
2022/01/11 03:16:22;;;;;;;37.40;17.63;;;1.10;99.90;;;;;;5043017;28;20332;-64
2022/01/11 03:18:51;;;;;;;36.47;17.70;;;1.10;99.90;;;;;;5041894;28;20665;-64
2022/01/11 03:21:19;;;;;;;37.90;16.77;;;1.10;99.90;;;;;;5047569;28;20197;-65
2022/01/11 03:23:49;;;;;;;36.60;17.23;;;1.00;99.90;;;;;;5044844;28;20213;-64
2022/01/11 03:26:18;;;;;;;35.97;16.97;;;1.00;99.90;;;;;;5045784;28;20193;-64
2022/01/11 03:28:47;;;;;;;34.60;16.60;;;1.00;99.90;;;;;;5045923;28;20221;-64
2022/01/11 03:31:19;;;;;;;36.57;17.50;;;0.90;99.90;;;;;;5045761;28;20279;-64
2022/01/11 03:33:47;;;;;;;30.53;16.60;;;0.90;99.90;;;;;;5041321;28;20271;-64
2022/01/11 03:36:16;;;;;;;34.30;17.43;;;0.90;99.90;;;;;;5043737;28;20717;-64
2022/01/11 03:38:44;;;;;;;37.90;17.60;;;0.90;99.90;;;;;;5042925;28;20287;-64
2022/01/11 03:41:13;;;;;;;33.40;15.80;;;0.90;99.90;;;;;;5041101;28;20272;-64
2022/01/11 03:43:42;;;;;;;34.60;17.07;;;0.90;99.90;;;;;;5036609;28;20201;-64
2022/01/11 03:46:10;;;;;;;35.47;16.43;;;0.90;99.90;;;;;;5043620;28;20258;-64
2022/01/11 03:48:40;;;;;;;32.03;15.47;;;0.90;99.90;;;;;;5045766;28;20184;-65
2022/01/11 03:51:08;;;;;;;37.13;16.17;;;0.80;99.90;;;;;;5044426;28;20223;-64
2022/01/11 03:53:52;;;;;;;34.00;15.50;;;0.80;99.90;;;;;;5039600;28;20833;-64
2022/01/11 03:56:23;;;;;;;36.40;16.17;;;0.90;99.90;;;;;;5044652;28;20259;-64
2022/01/11 03:58:52;;;;;;;29.47;15.40;;;0.90;99.90;;;;;;5045635;28;20599;-64
2022/01/11 04:01:21;;;;;;;29.87;15.87;;;0.90;99.90;;;;;;5043637;28;20224;-64
2022/01/11 04:03:51;;;;;;;34.20;16.53;;;0.90;99.90;;;;;;5041716;28;20598;-64
2022/01/11 04:06:20;;;;;;;37.03;16.67;;;0.80;99.90;;;;;;5043452;28;20283;-64
2022/01/11 04:08:48;;;;;;;35.67;16.90;;;0.90;99.90;;;;;;5042937;28;20208;-65
2022/01/11 04:11:17;;;;;;;36.67;16.60;;;0.90;99.90;;;;;;5042389;28;20197;-64
2022/01/11 04:13:46;;;;;;;32.93;16.13;;;0.90;99.90;;;;;;5042743;28;20228;-64
2022/01/11 04:16:17;;;;;;;37.67;16.67;;;0.90;99.90;;;;;;5040401;28;20204;-64
2022/01/11 04:18:45;;;;;;;33.57;16.10;;;0.90;99.90;;;;;;5044681;28;20201;-64
2022/01/11 04:21:15;;;;;;;34.70;16.37;;;0.90;99.90;;;;;;5041817;28;20192;-64
2022/01/11 04:23:44;;;;;;;34.50;16.53;;;0.90;99.90;;;;;;5044421;28;20292;-65
2022/01/11 04:26:12;;;;;;;38.20;16.67;;;0.80;99.90;;;;;;5043431;28;20276;-64
2022/01/11 04:28:41;;;;;;;36.80;16.17;;;0.80;99.90;;;;;;5044511;28;20604;-65
2022/01/11 04:31:09;;;;;;;29.83;15.17;;;0.90;99.90;;;;;;5043414;28;20197;-64
2022/01/11 04:33:42;;;;;;;31.20;15.63;;;0.80;99.90;;;;;;5044211;28;20193;-64
2022/01/11 04:36:12;;;;;;;33.03;15.83;;;0.80;99.90;;;;;;5044240;28;20272;-64
2022/01/11 04:38:42;;;;;;;33.17;15.83;;;0.80;99.90;;;;;;5044565;28;20305;-64
2022/01/11 04:41:10;;;;;;;31.67;15.57;;;0.70;99.90;;;;;;5042632;28;20592;-64
2022/01/11 04:43:38;;;;;;;34.10;16.00;;;0.70;99.90;;;;;;5047504;28;20193;-64
2022/01/11 04:46:07;;;;;;;29.67;15.73;;;0.70;99.90;;;;;;5045882;28;20201;-64
2022/01/11 04:48:36;;;;;;;37.87;16.67;;;0.70;99.90;;;;;;5045894;28;20917;-64
2022/01/11 04:51:05;;;;;;;34.43;16.63;;;0.70;99.90;;;;;;5042156;28;20197;-64
2022/01/11 04:53:34;;;;;;;33.70;15.40;;;0.60;99.90;;;;;;5045034;28;20280;-64
2022/01/11 04:56:04;;;;;;;37.70;16.77;;;0.70;99.90;;;;;;5044933;28;20258;-64
2022/01/11 04:58:33;;;;;;;32.87;15.73;;;0.60;99.90;;;;;;5045896;28;20312;-64
2022/01/11 05:01:01;;;;;;;34.20;16.47;;;0.60;99.90;;;;;;5046110;28;20648;-64
2022/01/11 05:03:32;;;;;;;34.90;16.23;;;0.60;99.90;;;;;;5043521;28;21552;-64
2022/01/11 05:06:01;;;;;;;37.30;16.20;;;0.50;99.90;;;;;;5039613;28;20312;-64
2022/01/11 05:08:30;;;;;;;38.80;17.00;;;0.50;99.90;;;;;;5042293;28;20197;-64
2022/01/11 05:10:59;;;;;;;37.90;17.27;;;0.50;99.90;;;;;;5046553;28;20291;-64
2022/01/11 05:13:31;;;;;;;36.70;17.23;;;0.50;99.90;;;;;;5042813;28;20646;-64
2022/01/11 05:16:02;;;;;;;35.20;17.40;;;0.50;99.90;;;;;;5042697;28;20224;-64
2022/01/11 05:18:30;;;;;;;36.37;16.80;;;0.50;99.90;;;;;;5043988;28;20220;-65
2022/01/11 05:20:58;;;;;;;38.03;16.07;;;0.50;99.90;;;;;;5044166;28;20284;-64
2022/01/11 05:23:27;;;;;;;40.77;17.77;;;0.50;99.90;;;;;;5045539;28;20195;-64
2022/01/11 05:25:55;;;;;;;36.37;16.87;;;0.50;99.90;;;;;;5044218;28;20215;-64
2022/01/11 05:28:23;;;;;;;37.37;17.43;;;0.40;99.90;;;;;;5043208;28;21507;-64
2022/01/11 05:30:53;;;;;;;36.50;17.17;;;0.40;99.90;;;;;;5047549;28;20750;-64
2022/01/11 05:33:22;;;;;;;37.47;18.40;;;0.40;99.90;;;;;;5047960;28;20197;-64
2022/01/11 05:35:50;;;;;;;38.63;17.00;;;0.40;99.90;;;;;;5045451;28;20319;-64
2022/01/11 05:38:19;;;;;;;39.70;16.93;;;0.40;99.90;;;;;;5049860;28;20291;-64
2022/01/11 05:40:47;;;;;;;37.03;16.93;;;0.50;99.90;;;;;;5043979;28;20201;-65
2022/01/11 05:43:16;;;;;;;39.57;17.10;;;0.50;99.90;;;;;;5049912;28;20200;-64
2022/01/11 05:45:44;;;;;;;37.13;16.10;;;0.50;99.90;;;;;;5049344;28;20213;-64
2022/01/11 05:48:14;;;;;;;39.43;16.63;;;0.60;99.90;;;;;;5045203;28;20208;-64
2022/01/11 05:50:43;;;;;;;45.90;17.20;;;0.60;99.90;;;;;;5049850;28;20698;-64
2022/01/11 05:53:12;;;;;;;40.50;16.67;;;0.70;99.90;;;;;;5045620;28;20213;-66
2022/01/11 05:55:40;;;;;;;37.23;16.83;;;0.70;99.90;;;;;;5050027;28;20269;-64
2022/01/11 05:58:13;;;;;;;43.43;17.73;;;0.70;99.90;;;;;;5048175;28;20587;-64
2022/01/11 06:00:42;;;;;;;37.03;16.00;;;0.80;99.90;;;;;;5045867;28;20344;-64
2022/01/11 06:03:14;;;;;;;41.70;18.13;;;0.80;99.90;;;;;;5046523;28;20204;-64
2022/01/11 06:06:20;;;;;;;39.30;17.03;;;0.80;99.90;;;;;;5048855;28;20249;-64
2022/01/11 06:08:49;;;;;;;31.77;16.73;;;0.80;99.90;;;;;;5030192;28;20181;-64
2022/01/11 06:11:18;;;;;;;40.73;17.93;;;0.80;99.90;;;;;;5039284;28;20228;-64
2022/01/11 06:13:47;;;;;;;41.13;18.03;;;0.90;99.90;;;;;;5044952;28;20200;-64
2022/01/11 06:16:16;;;;;;;43.00;17.70;;;0.90;99.90;;;;;;5046974;28;20289;-64
2022/01/11 06:18:45;;;;;;;43.90;19.27;;;0.90;99.90;;;;;;5048298;28;20208;-64
2022/01/11 06:21:14;;;;;;;43.80;18.97;;;0.80;99.90;;;;;;5046219;28;20197;-64
2022/01/11 06:23:43;;;;;;;40.13;17.73;;;0.90;99.90;;;;;;5044694;28;20221;-64
2022/01/11 06:26:11;;;;;;;47.57;19.33;;;0.90;99.90;;;;;;5043629;28;20721;-64
2022/01/11 06:28:39;;;;;;;44.43;17.40;;;0.90;99.90;;;;;;5026046;28;20211;-64
2022/01/11 06:31:08;;;;;;;40.77;18.00;;;1.00;99.90;;;;;;5046396;28;20839;-64
2022/01/11 06:33:37;;;;;;;40.77;17.10;;;0.90;99.90;;;;;;5036667;28;20201;-64
2022/01/11 06:36:09;;;;;;;37.37;18.00;;;0.90;99.90;;;;;;5043662;28;20231;-64
2022/01/11 06:38:39;;;;;;;38.10;17.00;;;0.90;99.90;;;;;;5046676;28;20224;-64
2022/01/11 06:41:07;;;;;;;41.60;18.60;;;0.90;99.90;;;;;;5044459;28;20201;-64
2022/01/11 06:43:35;;;;;;;39.30;16.90;;;0.90;99.90;;;;;;5047536;28;20197;-64
2022/01/11 06:46:05;;;;;;;39.07;17.27;;;0.90;99.90;;;;;;5044006;28;20741;-64
2022/01/11 06:48:34;;;;;;;39.13;17.43;;;1.00;99.90;;;;;;5046142;28;20246;-64
2022/01/11 06:51:02;;;;;;;46.40;19.90;;;1.00;99.90;;;;;;5040498;28;20853;-64
2022/01/11 06:53:32;;;;;;;43.30;18.47;;;1.00;99.90;;;;;;5045607;28;20574;-64
2022/01/11 06:56:01;;;;;;;43.57;19.07;;;1.00;99.90;;;;;;5043674;28;20228;-64
2022/01/11 06:58:29;;;;;;;48.03;20.70;;;1.00;99.90;;;;;;5039792;28;20251;-64
2022/01/11 07:00:57;;;;;;;63.23;25.23;;;1.00;99.90;;;;;;5045714;28;20687;-64
2022/01/11 07:03:27;;;;;;;47.30;19.77;;;1.00;99.90;;;;;;5047299;28;20227;-64
2022/01/11 07:05:55;;;;;;;40.63;17.57;;;1.00;99.90;;;;;;5044839;28;20370;-65
2022/01/11 07:08:24;;;;;;;45.07;18.57;;;1.00;99.90;;;;;;5044535;28;20235;-65
2022/01/11 07:10:54;;;;;;;45.90;20.37;;;1.00;99.90;;;;;;5046579;28;20228;-64
2022/01/11 07:13:23;;;;;;;44.10;19.53;;;1.00;99.90;;;;;;5046412;28;20200;-64
2022/01/11 07:15:51;;;;;;;43.57;20.13;;;0.90;99.90;;;;;;5045783;28;20704;-64
2022/01/11 07:18:20;;;;;;;46.10;18.70;;;0.90;99.90;;;;;;5047789;28;20282;-64
2022/01/11 07:20:48;;;;;;;43.50;19.07;;;0.90;99.90;;;;;;5039815;28;20262;-64
2022/01/11 07:23:17;;;;;;;41.30;17.87;;;0.90;99.90;;;;;;5049092;28;20262;-64
2022/01/11 07:25:45;;;;;;;46.73;18.50;;;0.90;99.90;;;;;;5047262;28;20200;-64
2022/01/11 07:28:15;;;;;;;43.87;18.77;;;0.90;99.90;;;;;;5032239;28;20193;-64
2022/01/11 07:30:44;;;;;;;48.30;19.60;;;0.90;99.90;;;;;;5048686;28;20228;-64
2022/01/11 07:33:12;;;;;;;45.50;18.57;;;0.90;99.90;;;;;;5046938;28;20203;-64
2022/01/11 07:35:40;;;;;;;49.00;18.43;;;0.90;99.90;;;;;;5048844;28;20312;-64
2022/01/11 07:38:09;;;;;;;49.40;20.83;;;1.00;99.90;;;;;;5042658;28;20628;-64
2022/01/11 07:40:37;;;;;;;53.83;24.20;;;0.90;99.90;;;;;;5038175;28;20201;-64
2022/01/11 07:43:05;;;;;;;51.00;19.33;;;0.90;99.90;;;;;;5034373;28;20228;-64
2022/01/11 07:45:38;;;;;;;45.80;18.30;;;1.00;99.90;;;;;;5042826;28;20201;-65
2022/01/11 07:48:06;;;;;;;41.70;16.33;;;1.00;99.90;;;;;;5044243;28;20236;-64
2022/01/11 07:50:35;;;;;;;45.57;18.50;;;1.00;99.90;;;;;;5046352;28;20232;-64
2022/01/11 07:53:05;;;;;;;44.27;19.00;;;1.00;99.90;;;;;;5058848;28;20747;-64
2022/01/11 07:55:34;;;;;;;46.57;19.73;;;1.00;99.90;;;;;;5044789;28;20235;-64
2022/01/11 07:58:03;;;;;;;41.37;16.37;;;1.00;99.90;;;;;;5040646;28;20200;-64
2022/01/11 08:00:31;;;;;;;45.00;19.17;;;1.00;99.90;;;;;;5045244;28;20248;-64
2022/01/11 08:03:01;;;;;;;49.77;18.57;;;1.00;99.90;;;;;;5042381;28;20203;-64
2022/01/11 08:05:30;;;;;;;48.67;18.13;;;1.10;99.90;;;;;;5047688;28;20200;-64
2022/01/11 08:07:59;;;;;;;43.73;18.50;;;1.10;99.90;;;;;;5025214;28;20205;-64
2022/01/11 08:10:27;;;;;;;48.07;18.73;;;1.10;99.90;;;;;;5048554;28;20308;-64
2022/01/11 08:12:55;;;;;;;49.93;19.67;;;1.10;99.90;;;;;;5045024;28;20280;-64
2022/01/11 08:15:24;;;;;;;68.43;26.63;;;1.10;99.90;;;;;;5030354;28;20215;-64
2022/01/11 08:17:52;;;;;;;74.40;30.53;;;1.10;99.90;;;;;;5045576;28;20220;-64
2022/01/11 08:20:22;;;;;;;50.67;20.73;;;1.10;99.90;;;;;;5047558;28;20222;-64
2022/01/11 08:22:51;;;;;;;48.30;19.60;;;1.20;99.90;;;;;;5040235;28;20210;-64
2022/01/11 08:25:19;;;;;;;50.13;19.43;;;1.10;99.90;;;;;;5042645;28;20227;-64
2022/01/11 08:27:48;;;;;;;59.13;23.83;;;1.10;99.90;;;;;;5036116;28;20279;-64
2022/01/11 08:30:16;;;;;;;61.47;25.57;;;1.10;99.90;;;;;;5046885;28;20219;-64
2022/01/11 08:32:45;;;;;;;62.77;22.50;;;1.10;99.90;;;;;;5041364;28;20608;-64
2022/01/11 08:35:14;;;;;;;70.03;27.90;;;1.10;99.90;;;;;;5042597;28;20311;-64
2022/01/11 08:37:44;;;;;;;49.30;20.90;;;1.20;99.90;;;;;;5044146;28;20189;-64
2022/01/11 08:40:13;;;;;;;47.77;18.47;;;1.20;99.90;;;;;;5046118;28;20243;-64
2022/01/11 08:42:42;;;;;;;53.37;19.47;;;1.20;99.90;;;;;;5043398;28;20280;-64
2022/01/11 08:45:11;;;;;;;56.30;19.17;;;1.30;99.90;;;;;;5045694;28;20290;-64
2022/01/11 08:47:39;;;;;;;48.83;19.03;;;1.40;99.90;;;;;;5046011;28;20283;-64
2022/01/11 08:50:11;;;;;;;51.30;19.77;;;1.40;99.90;;;;;;5043642;28;20189;-64
2022/01/11 08:52:40;;;;;;;50.40;20.10;;;1.40;99.90;;;;;;5044751;28;20624;-65
2022/01/11 08:55:12;;;;;;;46.60;19.57;;;1.50;99.90;;;;;;5042803;28;20292;-64
2022/01/11 08:57:40;;;;;;;57.37;25.03;;;1.50;99.90;;;;;;5046104;28;20882;-64
2022/01/11 09:00:16;;;;;;;52.23;20.77;;;1.60;99.90;;;;;;5040520;28;20295;-64
2022/01/11 09:02:46;;;;;;;60.40;21.10;;;1.60;99.90;;;;;;5044269;28;20208;-64
2022/01/11 09:05:15;;;;;;;48.67;20.67;;;1.70;99.90;;;;;;5049308;28;20287;-64
2022/01/11 09:07:44;;;;;;;51.63;19.70;;;1.60;99.90;;;;;;5048945;28;20196;-64
2022/01/11 09:10:14;;;;;;;52.53;19.17;;;1.70;99.90;;;;;;5049670;28;20193;-64
2022/01/11 09:12:43;;;;;;;48.90;18.67;;;1.80;99.90;;;;;;5050290;28;20279;-64
2022/01/11 09:15:11;;;;;;;50.70;18.63;;;1.80;99.90;;;;;;5049360;28;21666;-64
2022/01/11 09:17:41;;;;;;;47.30;19.67;;;1.90;99.90;;;;;;5060794;28;20298;-64
2022/01/11 09:20:12;;;;;;;49.57;20.13;;;1.90;99.90;;;;;;5048773;28;20291;-65
2022/01/11 09:22:41;;;;;;;48.83;20.83;;;1.90;99.90;;;;;;5050138;28;20279;-64
2022/01/11 09:25:11;;;;;;;52.47;20.80;;;1.90;99.90;;;;;;5047620;28;20289;-64
2022/01/11 09:27:41;;;;;;;49.23;19.57;;;1.90;99.90;;;;;;5034950;28;20748;-65
2022/01/11 09:30:12;;;;;;;51.40;19.13;;;2.00;99.90;;;;;;5047570;28;20285;-64
2022/01/11 09:32:41;;;;;;;46.70;18.07;;;2.00;99.90;;;;;;5048934;28;20192;-64
2022/01/11 09:35:12;;;;;;;49.87;19.63;;;2.00;99.90;;;;;;5048754;28;20306;-64
2022/01/11 09:37:41;;;;;;;45.60;18.67;;;1.90;99.90;;;;;;5044675;28;20555;-64
2022/01/11 09:40:11;;;;;;;45.70;17.93;;;2.00;99.90;;;;;;5045064;28;20221;-64
2022/01/11 09:42:41;;;;;;;47.90;19.33;;;2.00;99.90;;;;;;5045380;28;20235;-64
2022/01/11 09:45:12;;;;;;;51.70;19.57;;;2.00;99.90;;;;;;5049786;28;20710;-64
2022/01/11 09:47:41;;;;;;;50.50;19.37;;;2.00;99.90;;;;;;5047764;28;20873;-64
2022/01/11 09:50:12;;;;;;;49.33;19.23;;;2.00;99.90;;;;;;5048562;28;20192;-64
2022/01/11 09:52:41;;;;;;;50.83;18.73;;;2.00;99.90;;;;;;5046294;28;20279;-64
2022/01/11 09:55:13;;;;;;;45.13;18.63;;;2.10;99.90;;;;;;5048567;28;20203;-65
2022/01/11 09:57:43;;;;;;;64.57;26.60;;;2.10;99.90;;;;;;5047949;28;20234;-65
2022/01/11 10:00:13;;;;;;;45.63;19.07;;;2.10;99.90;;;;;;5045525;28;20217;-65
2022/01/11 10:02:42;;;;;;;50.33;18.87;;;2.10;99.90;;;;;;5046692;28;20250;-64
2022/01/11 10:05:12;;;;;;;44.93;18.07;;;2.10;99.90;;;;;;5044919;28;20200;-65
2022/01/11 10:07:43;;;;;;;46.90;19.37;;;2.10;99.90;;;;;;5040310;28;20197;-64
2022/01/11 10:10:14;;;;;;;57.20;24.47;;;2.10;99.90;;;;;;5039643;28;20277;-64
2022/01/11 10:12:45;;;;;;;51.00;20.07;;;2.00;99.90;;;;;;5048958;28;20209;-64
2022/01/11 10:15:14;;;;;;;45.03;18.63;;;2.00;99.90;;;;;;5044868;28;20651;-64
2022/01/11 10:17:46;;;;;;;47.33;18.77;;;1.90;99.90;;;;;;5047800;28;20216;-64
2022/01/11 10:20:20;;;;;;;51.43;20.10;;;2.00;99.90;;;;;;5047719;28;20204;-64
2022/01/11 10:22:50;;;;;;;105.47;40.40;;;2.00;99.90;;;;;;5044738;28;20209;-64
2022/01/11 10:25:20;;;;;;;89.30;37.57;;;2.10;99.90;;;;;;5047674;28;20197;-65
2022/01/11 10:27:56;;;;;;;50.73;22.00;;;2.20;99.90;;;;;;5049029;28;20204;-64
2022/01/11 10:30:26;;;;;;;42.93;18.20;;;2.20;99.90;;;;;;5064980;28;20276;-65
2022/01/11 10:32:56;;;;;;;44.73;18.03;;;2.30;99.90;;;;;;5041772;28;20189;-65
2022/01/11 10:35:26;;;;;;;41.80;17.33;;;2.40;99.90;;;;;;5047168;28;20283;-64
2022/01/11 10:38:24;;;;;;;37.43;17.67;;;2.50;99.90;;;;;;5042609;28;20201;-65
2022/01/11 10:40:53;;;;;;;40.63;18.07;;;2.50;99.90;;;;;;5048295;28;20232;-64
2022/01/11 10:43:23;;;;;;;40.07;17.67;;;2.60;99.90;;;;;;5049031;28;20276;-64
2022/01/11 10:45:54;;;;;;;41.87;18.27;;;2.60;99.90;;;;;;5046975;28;20648;-65
2022/01/11 10:48:24;;;;;;;57.60;23.90;;;2.70;99.90;;;;;;5048854;28;20203;-64
2022/01/11 10:50:56;;;;;;;44.60;22.00;;;2.70;99.90;;;;;;5050171;28;20195;-64
2022/01/11 10:53:27;;;;;;;38.10;16.77;;;2.80;99.90;;;;;;5048692;28;20208;-64
2022/01/11 10:55:58;;;;;;;44.50;18.70;;;2.90;99.90;;;;;;5031621;28;20197;-64
2022/01/11 10:59:05;;;;;;;40.30;16.17;;;2.90;99.90;;;;;;5021133;28;20189;-64
2022/01/11 11:01:33;;;;;;;38.03;17.17;;;3.00;99.90;;;;;;5045492;28;20313;-64
2022/01/11 11:04:02;;;;;;;40.33;20.33;;;3.10;99.90;;;;;;5048434;28;20540;-65
2022/01/11 11:06:31;;;;;;;39.60;16.87;;;3.10;99.90;;;;;;5043000;28;20304;-64
2022/01/11 11:09:01;;;;;;;37.63;16.60;;;3.30;99.90;;;;;;5045537;28;20204;-64
2022/01/11 11:11:30;;;;;;;37.60;16.80;;;3.30;99.90;;;;;;5049589;28;20193;-65
2022/01/11 11:14:00;;;;;;;41.73;18.13;;;3.40;99.90;;;;;;5046311;28;20227;-65
2022/01/11 11:16:29;;;;;;;37.30;15.57;;;3.40;99.90;;;;;;5046276;28;20695;-64
2022/01/11 11:18:59;;;;;;;45.97;18.47;;;3.40;99.90;;;;;;5042776;28;20207;-64
2022/01/11 11:21:31;;;;;;;50.83;22.07;;;3.50;99.90;;;;;;5048234;28;20225;-64
2022/01/11 11:24:00;;;;;;;57.23;24.80;;;3.40;99.90;;;;;;5044706;28;20221;-64
2022/01/11 11:26:31;;;;;;;52.13;23.40;;;3.40;99.90;;;;;;5046617;28;20204;-64
2022/01/11 11:29:02;;;;;;;48.90;22.53;;;3.50;99.90;;;;;;5046744;28;20201;-65
2022/01/11 11:31:51;;;;;;;40.57;17.70;;;3.50;99.90;;;;;;5042476;28;20208;-64
2022/01/11 11:34:23;;;;;;;39.00;19.37;;;3.60;99.90;;;;;;5042723;28;20584;-65
2022/01/11 11:36:52;;;;;;;42.17;19.20;;;3.60;99.90;;;;;;5046294;28;20196;-65
2022/01/11 11:39:22;;;;;;;37.97;19.03;;;3.60;99.90;;;;;;5044840;28;20521;-65
2022/01/11 11:41:53;;;;;;;40.53;17.60;;;3.60;99.90;;;;;;5039180;28;20224;-64
2022/01/11 11:44:27;;;;;;;35.80;17.27;;;3.60;99.90;;;;;;5043122;28;20200;-64
2022/01/11 11:46:59;;;;;;;33.50;16.93;;;3.60;99.90;;;;;;5044579;28;20201;-65
2022/01/11 11:49:45;;;;;;;35.33;15.87;;;3.70;99.90;;;;;;5044637;28;20254;-64
2022/01/11 11:52:19;;;;;;;37.93;16.90;;;3.70;99.90;;;;;;5047349;28;20689;-65
2022/01/11 11:54:49;;;;;;;32.47;16.20;;;3.80;99.90;;;;;;5042718;28;20660;-65
2022/01/11 11:57:19;;;;;;;33.47;15.67;;;3.80;99.90;;;;;;5043191;28;20687;-65
2022/01/11 11:59:58;;;;;;;37.77;16.60;;;3.90;99.90;;;;;;5046130;28;20223;-65
2022/01/11 12:02:35;;;;;;;35.37;15.83;;;3.90;99.90;;;;;;5035445;28;20291;-65
2022/01/11 12:05:06;;;;;;;57.53;23.43;;;4.00;99.90;;;;;;5043825;28;20204;-65
2022/01/11 12:07:39;;;;;;;40.30;18.30;;;4.10;99.90;;;;;;5041991;28;20258;-64
2022/01/11 12:10:13;;;;;;;34.47;17.23;;;4.20;99.90;;;;;;5043226;28;20214;-65
2022/01/11 12:12:52;;;;;;;33.90;15.70;;;4.30;99.90;;;;;;5042208;28;20567;-65
2022/01/11 12:15:39;;;;;;;32.10;16.17;;;4.40;99.90;;;;;;5045823;28;20201;-65
2022/01/11 12:18:15;;;;;;;35.90;15.33;;;4.40;99.90;;;;;;5042278;28;20189;-65
2022/01/11 12:20:49;;;;;;;38.50;17.23;;;4.40;99.90;;;;;;5044309;28;20602;-65
2022/01/11 12:23:22;;;;;;;32.80;15.07;;;4.50;99.90;;;;;;5037514;28;20232;-65
2022/01/11 12:25:55;;;;;;;33.50;14.97;;;4.70;99.90;;;;;;5041363;28;20663;-65
2022/01/11 12:28:26;;;;;;;31.80;15.03;;;4.90;99.90;;;;;;5044351;28;20201;-64
2022/01/11 12:31:25;;;;;;;34.40;16.00;;;5.10;99.90;;;;;;5041761;28;20224;-65
2022/01/11 12:33:54;;;;;;;36.43;16.30;;;5.30;99.90;;;;;;5046305;28;20255;-65
2022/01/11 12:36:53;;;;;;;34.73;15.73;;;5.40;99.90;;;;;;5045581;28;21176;-65
2022/01/11 12:39:23;;;;;;;33.20;16.53;;;5.50;99.90;;;;;;5044141;28;20709;-65
2022/01/11 12:41:53;;;;;;;30.43;15.90;;;5.70;99.90;;;;;;5043092;28;20297;-65
2022/01/11 12:44:27;;;;;;;31.30;16.43;;;5.70;99.90;;;;;;5044018;28;20228;-65
2022/01/11 12:46:59;;;;;;;30.67;16.63;;;5.80;99.90;;;;;;5045055;28;20220;-65
2022/01/11 12:49:30;;;;;;;35.77;15.77;;;5.70;99.90;;;;;;5038403;28;20193;-65
2022/01/11 12:52:09;;;;;;;29.20;15.80;;;5.60;99.90;;;;;;5044111;28;20196;-65
2022/01/11 12:54:39;;;;;;;32.40;15.37;;;5.70;99.90;;;;;;5041602;28;20212;-65